sensor_id;sensor_type;location;lat;lon;timestamp;P1;durP1;ratioP1;P2;durP2;ratioP2
9160;SDS011;4615;51.340;8.288;2022-12-18T00:01:32;7.72;;;6.82;;
9160;SDS011;4615;51.340;8.288;2022-12-18T00:03:59;7.57;;;6.43;;
9160;SDS011;4615;51.340;8.288;2022-12-18T00:06:26;7.50;;;6.33;;
9160;SDS011;4615;51.340;8.288;2022-12-18T00:08:53;7.65;;;6.70;;
9160;SDS011;4615;51.340;8.288;2022-12-18T00:11:21;8.85;;;7.03;;
9160;SDS011;4615;51.340;8.288;2022-12-18T00:13:48;7.53;;;6.47;;
9160;SDS011;4615;51.340;8.288;2022-12-18T00:16:15;7.88;;;6.75;;
9160;SDS011;4615;51.340;8.288;2022-12-18T00:18:43;7.15;;;6.45;;
9160;SDS011;4615;51.340;8.288;2022-12-18T00:21:10;5.97;;;5.38;;
9160;SDS011;4615;51.340;8.288;2022-12-18T00:23:37;7.07;;;5.50;;
9160;SDS011;4615;51.340;8.288;2022-12-18T00:26:04;7.65;;;6.03;;
9160;SDS011;4615;51.340;8.288;2022-12-18T00:28:32;9.05;;;6.00;;
9160;SDS011;4615;51.340;8.288;2022-12-18T00:31:00;8.18;;;6.90;;
9160;SDS011;4615;51.340;8.288;2022-12-18T00:33:26;8.18;;;6.05;;
9160;SDS011;4615;51.340;8.288;2022-12-18T00:35:53;7.25;;;6.32;;
9160;SDS011;4615;51.340;8.288;2022-12-18T00:38:19;9.05;;;5.90;;
9160;SDS011;4615;51.340;8.288;2022-12-18T00:40:45;6.70;;;5.55;;
9160;SDS011;4615;51.340;8.288;2022-12-18T00:43:12;7.32;;;5.47;;
9160;SDS011;4615;51.340;8.288;2022-12-18T00:45:39;5.97;;;4.65;;
9160;SDS011;4615;51.340;8.288;2022-12-18T00:48:06;7.55;;;5.80;;
9160;SDS011;4615;51.340;8.288;2022-12-18T00:50:32;7.47;;;5.68;;
9160;SDS011;4615;51.340;8.288;2022-12-18T00:52:58;5.70;;;5.10;;
9160;SDS011;4615;51.340;8.288;2022-12-18T00:55:25;6.18;;;4.63;;
9160;SDS011;4615;51.340;8.288;2022-12-18T00:57:51;7.72;;;5.30;;
9160;SDS011;4615;51.340;8.288;2022-12-18T01:00:18;9.10;;;5.97;;
9160;SDS011;4615;51.340;8.288;2022-12-18T01:02:46;6.57;;;5.00;;
9160;SDS011;4615;51.340;8.288;2022-12-18T01:05:13;5.95;;;4.80;;
9160;SDS011;4615;51.340;8.288;2022-12-18T01:07:39;5.65;;;4.80;;
9160;SDS011;4615;51.340;8.288;2022-12-18T01:10:06;5.38;;;4.60;;
9160;SDS011;4615;51.340;8.288;2022-12-18T01:12:33;6.27;;;4.87;;
9160;SDS011;4615;51.340;8.288;2022-12-18T01:14:59;7.53;;;6.10;;
9160;SDS011;4615;51.340;8.288;2022-12-18T01:17:25;7.68;;;6.22;;
9160;SDS011;4615;51.340;8.288;2022-12-18T01:19:53;7.43;;;5.75;;
9160;SDS011;4615;51.340;8.288;2022-12-18T01:22:19;6.80;;;5.05;;
9160;SDS011;4615;51.340;8.288;2022-12-18T01:24:46;6.28;;;5.05;;
9160;SDS011;4615;51.340;8.288;2022-12-18T01:27:12;5.70;;;4.57;;
9160;SDS011;4615;51.340;8.288;2022-12-18T01:29:39;6.22;;;4.50;;
9160;SDS011;4615;51.340;8.288;2022-12-18T01:32:05;5.13;;;3.85;;
9160;SDS011;4615;51.340;8.288;2022-12-18T01:34:31;5.13;;;4.07;;
9160;SDS011;4615;51.340;8.288;2022-12-18T01:37:00;5.97;;;4.00;;
9160;SDS011;4615;51.340;8.288;2022-12-18T01:39:28;5.13;;;3.90;;
9160;SDS011;4615;51.340;8.288;2022-12-18T01:41:54;4.50;;;3.47;;
9160;SDS011;4615;51.340;8.288;2022-12-18T01:47:34;5.13;;;3.77;;
9160;SDS011;4615;51.340;8.288;2022-12-18T01:50:02;5.03;;;4.07;;
9160;SDS011;4615;51.340;8.288;2022-12-18T01:52:31;4.88;;;4.28;;
9160;SDS011;4615;51.340;8.288;2022-12-18T01:54:57;5.55;;;4.40;;
9160;SDS011;4615;51.340;8.288;2022-12-18T01:57:25;5.38;;;4.53;;
9160;SDS011;4615;51.340;8.288;2022-12-18T01:59:52;5.55;;;4.35;;
9160;SDS011;4615;51.340;8.288;2022-12-18T02:02:19;3.85;;;3.45;;
9160;SDS011;4615;51.340;8.288;2022-12-18T02:04:46;5.13;;;4.03;;
9160;SDS011;4615;51.340;8.288;2022-12-18T02:07:14;4.17;;;3.47;;
9160;SDS011;4615;51.340;8.288;2022-12-18T02:09:45;4.90;;;4.00;;
9160;SDS011;4615;51.340;8.288;2022-12-18T02:12:13;4.60;;;4.00;;
9160;SDS011;4615;51.340;8.288;2022-12-18T02:14:43;5.75;;;4.30;;
9160;SDS011;4615;51.340;8.288;2022-12-18T02:17:11;4.35;;;3.78;;
9160;SDS011;4615;51.340;8.288;2022-12-18T02:19:42;5.45;;;4.13;;
9160;SDS011;4615;51.340;8.288;2022-12-18T02:22:14;4.50;;;3.92;;
9160;SDS011;4615;51.340;8.288;2022-12-18T02:24:51;5.05;;;4.05;;
9160;SDS011;4615;51.340;8.288;2022-12-18T02:27:24;5.70;;;4.05;;
9160;SDS011;4615;51.340;8.288;2022-12-18T02:29:51;4.40;;;4.00;;
9160;SDS011;4615;51.340;8.288;2022-12-18T02:32:19;4.20;;;3.80;;
9160;SDS011;4615;51.340;8.288;2022-12-18T02:34:47;4.45;;;3.92;;
9160;SDS011;4615;51.340;8.288;2022-12-18T02:37:15;5.70;;;4.13;;
9160;SDS011;4615;51.340;8.288;2022-12-18T02:39:43;4.75;;;3.90;;
9160;SDS011;4615;51.340;8.288;2022-12-18T02:42:10;4.82;;;3.83;;
9160;SDS011;4615;51.340;8.288;2022-12-18T02:44:43;4.03;;;3.63;;
9160;SDS011;4615;51.340;8.288;2022-12-18T02:47:10;4.45;;;3.35;;
9160;SDS011;4615;51.340;8.288;2022-12-18T02:49:38;4.63;;;3.42;;
9160;SDS011;4615;51.340;8.288;2022-12-18T02:52:08;3.78;;;3.20;;
9160;SDS011;4615;51.340;8.288;2022-12-18T02:54:43;5.28;;;3.70;;
9160;SDS011;4615;51.340;8.288;2022-12-18T02:57:15;4.68;;;3.50;;
9160;SDS011;4615;51.340;8.288;2022-12-18T02:59:45;5.35;;;4.10;;
9160;SDS011;4615;51.340;8.288;2022-12-18T03:02:16;6.60;;;4.82;;
9160;SDS011;4615;51.340;8.288;2022-12-18T03:04:46;5.63;;;4.60;;
9160;SDS011;4615;51.340;8.288;2022-12-18T03:07:15;5.25;;;3.63;;
9160;SDS011;4615;51.340;8.288;2022-12-18T03:09:43;4.82;;;3.80;;
9160;SDS011;4615;51.340;8.288;2022-12-18T03:12:18;4.45;;;3.30;;
9160;SDS011;4615;51.340;8.288;2022-12-18T03:14:50;4.47;;;3.40;;
9160;SDS011;4615;51.340;8.288;2022-12-18T03:17:18;4.67;;;3.40;;
9160;SDS011;4615;51.340;8.288;2022-12-18T03:19:46;4.60;;;3.43;;
9160;SDS011;4615;51.340;8.288;2022-12-18T03:22:13;4.35;;;3.40;;
9160;SDS011;4615;51.340;8.288;2022-12-18T03:24:42;3.78;;;3.38;;
9160;SDS011;4615;51.340;8.288;2022-12-18T03:27:09;4.90;;;3.60;;
9160;SDS011;4615;51.340;8.288;2022-12-18T03:29:37;4.80;;;3.80;;
9160;SDS011;4615;51.340;8.288;2022-12-18T03:32:07;4.22;;;3.63;;
9160;SDS011;4615;51.340;8.288;2022-12-18T03:34:36;3.92;;;3.25;;
9160;SDS011;4615;51.340;8.288;2022-12-18T03:37:03;4.35;;;3.40;;
9160;SDS011;4615;51.340;8.288;2022-12-18T03:39:30;4.53;;;3.63;;
9160;SDS011;4615;51.340;8.288;2022-12-18T03:41:58;4.55;;;3.75;;
9160;SDS011;4615;51.340;8.288;2022-12-18T03:44:28;4.30;;;3.65;;
9160;SDS011;4615;51.340;8.288;2022-12-18T03:46:56;5.80;;;4.38;;
9160;SDS011;4615;51.340;8.288;2022-12-18T03:49:27;5.60;;;3.90;;
9160;SDS011;4615;51.340;8.288;2022-12-18T03:51:59;4.25;;;3.75;;
9160;SDS011;4615;51.340;8.288;2022-12-18T03:54:27;3.95;;;3.55;;
9160;SDS011;4615;51.340;8.288;2022-12-18T03:56:55;4.45;;;3.80;;
9160;SDS011;4615;51.340;8.288;2022-12-18T03:59:22;4.87;;;3.87;;
9160;SDS011;4615;51.340;8.288;2022-12-18T04:01:49;4.18;;;3.65;;
9160;SDS011;4615;51.340;8.288;2022-12-18T04:04:17;3.90;;;3.47;;
9160;SDS011;4615;51.340;8.288;2022-12-18T04:06:46;4.78;;;3.90;;
9160;SDS011;4615;51.340;8.288;2022-12-18T04:09:14;5.15;;;3.75;;
9160;SDS011;4615;51.340;8.288;2022-12-18T04:11:40;4.63;;;3.60;;
9160;SDS011;4615;51.340;8.288;2022-12-18T04:14:08;4.30;;;3.50;;
9160;SDS011;4615;51.340;8.288;2022-12-18T04:16:35;4.50;;;3.80;;
9160;SDS011;4615;51.340;8.288;2022-12-18T04:19:02;3.87;;;3.30;;
9160;SDS011;4615;51.340;8.288;2022-12-18T04:21:28;4.82;;;3.53;;
9160;SDS011;4615;51.340;8.288;2022-12-18T04:23:56;4.72;;;3.20;;
9160;SDS011;4615;51.340;8.288;2022-12-18T04:26:22;3.67;;;3.17;;
9160;SDS011;4615;51.340;8.288;2022-12-18T04:28:49;4.20;;;3.42;;
9160;SDS011;4615;51.340;8.288;2022-12-18T04:31:15;4.35;;;3.35;;
9160;SDS011;4615;51.340;8.288;2022-12-18T04:33:42;4.45;;;3.47;;
9160;SDS011;4615;51.340;8.288;2022-12-18T04:36:08;3.90;;;3.25;;
9160;SDS011;4615;51.340;8.288;2022-12-18T04:38:34;3.33;;;2.80;;
9160;SDS011;4615;51.340;8.288;2022-12-18T04:41:02;3.63;;;3.00;;
9160;SDS011;4615;51.340;8.288;2022-12-18T04:43:29;4.37;;;3.13;;
9160;SDS011;4615;51.340;8.288;2022-12-18T04:46:00;4.13;;;3.23;;
9160;SDS011;4615;51.340;8.288;2022-12-18T04:48:27;4.38;;;3.70;;
9160;SDS011;4615;51.340;8.288;2022-12-18T04:50:53;5.25;;;3.60;;
9160;SDS011;4615;51.340;8.288;2022-12-18T04:53:19;4.97;;;3.45;;
9160;SDS011;4615;51.340;8.288;2022-12-18T04:55:46;4.43;;;3.38;;
9160;SDS011;4615;51.340;8.288;2022-12-18T04:58:14;3.90;;;3.30;;
9160;SDS011;4615;51.340;8.288;2022-12-18T05:00:40;4.32;;;3.40;;
9160;SDS011;4615;51.340;8.288;2022-12-18T05:03:06;4.10;;;3.10;;
9160;SDS011;4615;51.340;8.288;2022-12-18T05:05:34;3.80;;;3.20;;
9160;SDS011;4615;51.340;8.288;2022-12-18T05:08:00;4.38;;;3.55;;
9160;SDS011;4615;51.340;8.288;2022-12-18T05:10:27;5.05;;;3.70;;
9160;SDS011;4615;51.340;8.288;2022-12-18T05:12:53;3.95;;;3.55;;
9160;SDS011;4615;51.340;8.288;2022-12-18T05:15:28;5.57;;;3.90;;
9160;SDS011;4615;51.340;8.288;2022-12-18T05:17:55;4.35;;;3.80;;
9160;SDS011;4615;51.340;8.288;2022-12-18T05:20:22;4.30;;;3.70;;
9160;SDS011;4615;51.340;8.288;2022-12-18T05:22:48;4.28;;;3.80;;
9160;SDS011;4615;51.340;8.288;2022-12-18T05:25:14;3.70;;;3.30;;
9160;SDS011;4615;51.340;8.288;2022-12-18T05:27:41;4.40;;;3.42;;
9160;SDS011;4615;51.340;8.288;2022-12-18T05:30:08;3.30;;;3.00;;
9160;SDS011;4615;51.340;8.288;2022-12-18T05:32:36;4.13;;;3.13;;
9160;SDS011;4615;51.340;8.288;2022-12-18T05:35:02;3.35;;;2.90;;
9160;SDS011;4615;51.340;8.288;2022-12-18T05:37:29;3.78;;;3.10;;
9160;SDS011;4615;51.340;8.288;2022-12-18T05:39:58;4.47;;;3.28;;
9160;SDS011;4615;51.340;8.288;2022-12-18T05:42:24;3.88;;;3.00;;
9160;SDS011;4615;51.340;8.288;2022-12-18T05:44:50;3.85;;;3.30;;
9160;SDS011;4615;51.340;8.288;2022-12-18T05:47:17;4.15;;;3.13;;
9160;SDS011;4615;51.340;8.288;2022-12-18T05:49:45;3.20;;;2.70;;
9160;SDS011;4615;51.340;8.288;2022-12-18T05:52:11;4.65;;;3.30;;
9160;SDS011;4615;51.340;8.288;2022-12-18T05:54:38;3.65;;;3.17;;
9160;SDS011;4615;51.340;8.288;2022-12-18T05:57:05;3.42;;;2.70;;
9160;SDS011;4615;51.340;8.288;2022-12-18T05:59:31;3.42;;;2.90;;
9160;SDS011;4615;51.340;8.288;2022-12-18T06:01:58;3.53;;;2.90;;
9160;SDS011;4615;51.340;8.288;2022-12-18T06:04:26;3.40;;;2.88;;
9160;SDS011;4615;51.340;8.288;2022-12-18T06:06:53;3.30;;;2.67;;
9160;SDS011;4615;51.340;8.288;2022-12-18T06:09:20;3.53;;;3.05;;
9160;SDS011;4615;51.340;8.288;2022-12-18T06:11:46;4.00;;;3.20;;
9160;SDS011;4615;51.340;8.288;2022-12-18T06:14:13;3.47;;;2.97;;
9160;SDS011;4615;51.340;8.288;2022-12-18T06:16:42;4.18;;;3.38;;
9160;SDS011;4615;51.340;8.288;2022-12-18T06:19:12;3.70;;;3.28;;
9160;SDS011;4615;51.340;8.288;2022-12-18T06:21:39;3.97;;;3.28;;
9160;SDS011;4615;51.340;8.288;2022-12-18T06:24:07;4.20;;;3.30;;
9160;SDS011;4615;51.340;8.288;2022-12-18T06:26:34;4.25;;;3.60;;
9160;SDS011;4615;51.340;8.288;2022-12-18T06:29:02;4.95;;;3.63;;
9160;SDS011;4615;51.340;8.288;2022-12-18T06:31:28;4.85;;;3.70;;
9160;SDS011;4615;51.340;8.288;2022-12-18T06:33:55;3.63;;;3.20;;
9160;SDS011;4615;51.340;8.288;2022-12-18T06:36:21;4.47;;;3.65;;
9160;SDS011;4615;51.340;8.288;2022-12-18T06:38:48;4.43;;;3.65;;
9160;SDS011;4615;51.340;8.288;2022-12-18T06:41:16;5.85;;;3.92;;
9160;SDS011;4615;51.340;8.288;2022-12-18T06:43:43;5.13;;;4.07;;
9160;SDS011;4615;51.340;8.288;2022-12-18T06:46:09;4.63;;;4.22;;
9160;SDS011;4615;51.340;8.288;2022-12-18T06:48:36;4.82;;;4.20;;
9160;SDS011;4615;51.340;8.288;2022-12-18T06:51:03;4.57;;;4.10;;
9160;SDS011;4615;51.340;8.288;2022-12-18T06:53:29;6.32;;;4.20;;
9160;SDS011;4615;51.340;8.288;2022-12-18T06:55:59;4.75;;;3.88;;
9160;SDS011;4615;51.340;8.288;2022-12-18T06:58:27;5.30;;;3.93;;
9160;SDS011;4615;51.340;8.288;2022-12-18T07:00:53;5.72;;;4.40;;
9160;SDS011;4615;51.340;8.288;2022-12-18T07:03:19;5.47;;;4.70;;
9160;SDS011;4615;51.340;8.288;2022-12-18T07:05:46;5.55;;;4.43;;
9160;SDS011;4615;51.340;8.288;2022-12-18T07:08:12;4.53;;;4.13;;
9160;SDS011;4615;51.340;8.288;2022-12-18T07:10:41;4.88;;;4.38;;
9160;SDS011;4615;51.340;8.288;2022-12-18T07:13:08;5.07;;;4.40;;
9160;SDS011;4615;51.340;8.288;2022-12-18T07:15:36;5.45;;;4.53;;
9160;SDS011;4615;51.340;8.288;2022-12-18T07:18:03;5.43;;;4.93;;
9160;SDS011;4615;51.340;8.288;2022-12-18T07:20:29;5.47;;;4.50;;
9160;SDS011;4615;51.340;8.288;2022-12-18T07:22:55;6.32;;;5.72;;
9160;SDS011;4615;51.340;8.288;2022-12-18T07:25:22;10.50;;;9.40;;
9160;SDS011;4615;51.340;8.288;2022-12-18T07:27:49;13.75;;;11.27;;
9160;SDS011;4615;51.340;8.288;2022-12-18T07:30:15;10.82;;;9.57;;
9160;SDS011;4615;51.340;8.288;2022-12-18T07:32:43;8.43;;;7.05;;
9160;SDS011;4615;51.340;8.288;2022-12-18T07:35:09;10.00;;;8.90;;
9160;SDS011;4615;51.340;8.288;2022-12-18T07:37:36;11.30;;;9.55;;
9160;SDS011;4615;51.340;8.288;2022-12-18T07:40:02;10.65;;;9.55;;
9160;SDS011;4615;51.340;8.288;2022-12-18T07:42:29;9.03;;;8.00;;
9160;SDS011;4615;51.340;8.288;2022-12-18T07:44:58;14.13;;;12.75;;
9160;SDS011;4615;51.340;8.288;2022-12-18T07:47:24;12.50;;;11.20;;
9160;SDS011;4615;51.340;8.288;2022-12-18T07:49:52;14.20;;;11.33;;
9160;SDS011;4615;51.340;8.288;2022-12-18T07:52:18;17.83;;;12.77;;
9160;SDS011;4615;51.340;8.288;2022-12-18T07:54:45;14.68;;;13.23;;
9160;SDS011;4615;51.340;8.288;2022-12-18T07:57:17;10.50;;;9.43;;
9160;SDS011;4615;51.340;8.288;2022-12-18T07:59:43;9.77;;;8.77;;
9160;SDS011;4615;51.340;8.288;2022-12-18T08:02:10;9.57;;;8.57;;
9160;SDS011;4615;51.340;8.288;2022-12-18T08:04:36;12.32;;;11.07;;
9160;SDS011;4615;51.340;8.288;2022-12-18T08:07:04;13.68;;;12.15;;
9160;SDS011;4615;51.340;8.288;2022-12-18T08:09:30;15.07;;;13.48;;
9160;SDS011;4615;51.340;8.288;2022-12-18T08:11:57;13.70;;;12.30;;
9160;SDS011;4615;51.340;8.288;2022-12-18T08:14:23;23.73;;;21.42;;
9160;SDS011;4615;51.340;8.288;2022-12-18T08:16:50;13.10;;;11.73;;
9160;SDS011;4615;51.340;8.288;2022-12-18T08:19:17;11.63;;;10.43;;
9160;SDS011;4615;51.340;8.288;2022-12-18T08:21:44;12.45;;;11.15;;
9160;SDS011;4615;51.340;8.288;2022-12-18T08:24:12;12.95;;;11.60;;
9160;SDS011;4615;51.340;8.288;2022-12-18T08:26:39;11.52;;;10.32;;
9160;SDS011;4615;51.340;8.288;2022-12-18T08:29:06;12.70;;;11.40;;
9160;SDS011;4615;51.340;8.288;2022-12-18T08:31:33;16.83;;;15.13;;
9160;SDS011;4615;51.340;8.288;2022-12-18T08:33:59;16.80;;;15.00;;
9160;SDS011;4615;51.340;8.288;2022-12-18T08:36:26;14.18;;;12.70;;
9160;SDS011;4615;51.340;8.288;2022-12-18T08:38:53;11.57;;;10.40;;
9160;SDS011;4615;51.340;8.288;2022-12-18T08:41:21;11.40;;;10.30;;
9160;SDS011;4615;51.340;8.288;2022-12-18T08:43:48;12.02;;;10.88;;
9160;SDS011;4615;51.340;8.288;2022-12-18T08:46:34;11.80;;;10.70;;
9160;SDS011;4615;51.340;8.288;2022-12-18T08:49:00;12.95;;;11.65;;
9160;SDS011;4615;51.340;8.288;2022-12-18T08:51:27;10.85;;;9.75;;
9160;SDS011;4615;51.340;8.288;2022-12-18T08:53:54;10.75;;;9.68;;
9160;SDS011;4615;51.340;8.288;2022-12-18T08:56:22;10.55;;;9.45;;
9160;SDS011;4615;51.340;8.288;2022-12-18T08:58:50;9.65;;;8.73;;
9160;SDS011;4615;51.340;8.288;2022-12-18T09:01:17;11.60;;;10.40;;
9160;SDS011;4615;51.340;8.288;2022-12-18T09:03:48;12.02;;;10.82;;
9160;SDS011;4615;51.340;8.288;2022-12-18T09:06:16;12.73;;;11.52;;
9160;SDS011;4615;51.340;8.288;2022-12-18T09:08:43;11.13;;;10.02;;
9160;SDS011;4615;51.340;8.288;2022-12-18T09:11:12;11.35;;;9.95;;
9160;SDS011;4615;51.340;8.288;2022-12-18T09:13:41;9.82;;;8.93;;
9160;SDS011;4615;51.340;8.288;2022-12-18T09:16:08;10.50;;;9.45;;
9160;SDS011;4615;51.340;8.288;2022-12-18T09:18:35;10.65;;;9.57;;
9160;SDS011;4615;51.340;8.288;2022-12-18T09:21:09;10.70;;;9.63;;
9160;SDS011;4615;51.340;8.288;2022-12-18T09:23:36;13.73;;;12.45;;
9160;SDS011;4615;51.340;8.288;2022-12-18T09:26:04;15.45;;;14.05;;
9160;SDS011;4615;51.340;8.288;2022-12-18T09:28:32;14.45;;;12.98;;
9160;SDS011;4615;51.340;8.288;2022-12-18T09:31:02;15.98;;;14.43;;
9160;SDS011;4615;51.340;8.288;2022-12-18T09:33:30;14.05;;;12.55;;
9160;SDS011;4615;51.340;8.288;2022-12-18T09:35:57;15.80;;;12.73;;
9160;SDS011;4615;51.340;8.288;2022-12-18T09:38:25;14.07;;;12.68;;
9160;SDS011;4615;51.340;8.288;2022-12-18T09:40:52;19.40;;;17.48;;
9160;SDS011;4615;51.340;8.288;2022-12-18T09:43:22;17.53;;;15.83;;
9160;SDS011;4615;51.340;8.288;2022-12-18T09:45:51;14.27;;;12.88;;
9160;SDS011;4615;51.340;8.288;2022-12-18T09:48:20;10.95;;;9.85;;
9160;SDS011;4615;51.340;8.288;2022-12-18T09:50:49;11.50;;;10.40;;
9160;SDS011;4615;51.340;8.288;2022-12-18T09:53:17;7.82;;;7.03;;
9160;SDS011;4615;51.340;8.288;2022-12-18T09:55:45;10.82;;;9.73;;
9160;SDS011;4615;51.340;8.288;2022-12-18T09:58:13;13.00;;;11.80;;
9160;SDS011;4615;51.340;8.288;2022-12-18T10:00:41;8.63;;;7.73;;
9160;SDS011;4615;51.340;8.288;2022-12-18T10:03:08;9.60;;;8.10;;
9160;SDS011;4615;51.340;8.288;2022-12-18T10:05:37;4.78;;;4.32;;
9160;SDS011;4615;51.340;8.288;2022-12-18T10:08:08;6.60;;;6.00;;
9160;SDS011;4615;51.340;8.288;2022-12-18T10:10:37;5.93;;;4.90;;
9160;SDS011;4615;51.340;8.288;2022-12-18T10:13:09;4.68;;;4.25;;
9160;SDS011;4615;51.340;8.288;2022-12-18T10:15:39;4.18;;;3.63;;
9160;SDS011;4615;51.340;8.288;2022-12-18T10:18:13;3.50;;;2.80;;
9160;SDS011;4615;51.340;8.288;2022-12-18T10:20:44;9.70;;;8.70;;
9160;SDS011;4615;51.340;8.288;2022-12-18T10:23:14;5.57;;;4.97;;
9160;SDS011;4615;51.340;8.288;2022-12-18T10:25:47;7.28;;;6.10;;
9160;SDS011;4615;51.340;8.288;2022-12-18T10:28:15;8.65;;;7.47;;
9160;SDS011;4615;51.340;8.288;2022-12-18T10:30:42;7.80;;;7.10;;
9160;SDS011;4615;51.340;8.288;2022-12-18T10:33:09;4.78;;;4.28;;
9160;SDS011;4615;51.340;8.288;2022-12-18T10:35:37;6.57;;;5.88;;
9160;SDS011;4615;51.340;8.288;2022-12-18T10:38:20;8.00;;;7.20;;
9160;SDS011;4615;51.340;8.288;2022-12-18T10:40:48;8.55;;;7.70;;
9160;SDS011;4615;51.340;8.288;2022-12-18T10:43:16;8.68;;;7.78;;
9160;SDS011;4615;51.340;8.288;2022-12-18T10:45:56;8.48;;;7.60;;
9160;SDS011;4615;51.340;8.288;2022-12-18T10:48:24;6.68;;;5.93;;
9160;SDS011;4615;51.340;8.288;2022-12-18T10:50:50;6.85;;;6.20;;
9160;SDS011;4615;51.340;8.288;2022-12-18T10:53:20;5.78;;;5.18;;
9160;SDS011;4615;51.340;8.288;2022-12-18T10:55:47;5.07;;;4.57;;
9160;SDS011;4615;51.340;8.288;2022-12-18T10:58:20;3.90;;;3.03;;
9160;SDS011;4615;51.340;8.288;2022-12-18T11:01:01;3.40;;;3.10;;
9160;SDS011;4615;51.340;8.288;2022-12-18T11:03:29;3.97;;;3.58;;
9160;SDS011;4615;51.340;8.288;2022-12-18T11:06:01;4.10;;;3.47;;
9160;SDS011;4615;51.340;8.288;2022-12-18T11:08:29;3.30;;;3.00;;
9160;SDS011;4615;51.340;8.288;2022-12-18T11:10:56;4.50;;;3.30;;
9160;SDS011;4615;51.340;8.288;2022-12-18T11:13:23;3.63;;;3.33;;
9160;SDS011;4615;51.340;8.288;2022-12-18T11:15:50;3.10;;;2.58;;
9160;SDS011;4615;51.340;8.288;2022-12-18T11:18:17;2.20;;;2.00;;
9160;SDS011;4615;51.340;8.288;2022-12-18T11:20:49;2.70;;;2.40;;
9160;SDS011;4615;51.340;8.288;2022-12-18T11:23:16;2.42;;;2.05;;
9160;SDS011;4615;51.340;8.288;2022-12-18T11:25:50;1.60;;;1.50;;
9160;SDS011;4615;51.340;8.288;2022-12-18T11:28:25;1.90;;;1.70;;
9160;SDS011;4615;51.340;8.288;2022-12-18T11:30:54;1.80;;;1.70;;
9160;SDS011;4615;51.340;8.288;2022-12-18T11:33:34;1.60;;;1.50;;
9160;SDS011;4615;51.340;8.288;2022-12-18T11:36:02;1.70;;;1.60;;
9160;SDS011;4615;51.340;8.288;2022-12-18T11:38:30;1.65;;;1.40;;
9160;SDS011;4615;51.340;8.288;2022-12-18T11:41:00;1.60;;;1.50;;
9160;SDS011;4615;51.340;8.288;2022-12-18T11:43:29;1.50;;;1.40;;
9160;SDS011;4615;51.340;8.288;2022-12-18T11:45:59;1.60;;;1.50;;
9160;SDS011;4615;51.340;8.288;2022-12-18T11:48:27;1.48;;;1.38;;
9160;SDS011;4615;51.340;8.288;2022-12-18T11:50:55;1.85;;;1.50;;
9160;SDS011;4615;51.340;8.288;2022-12-18T11:53:22;1.33;;;1.23;;
9160;SDS011;4615;51.340;8.288;2022-12-18T11:55:54;3.42;;;3.13;;
9160;SDS011;4615;51.340;8.288;2022-12-18T11:58:29;1.95;;;1.77;;
9160;SDS011;4615;51.340;8.288;2022-12-18T12:01:00;2.15;;;1.85;;
9160;SDS011;4615;51.340;8.288;2022-12-18T12:03:39;1.52;;;1.42;;
9160;SDS011;4615;51.340;8.288;2022-12-18T12:06:09;1.80;;;1.60;;
9160;SDS011;4615;51.340;8.288;2022-12-18T12:08:44;2.70;;;1.80;;
9160;SDS011;4615;51.340;8.288;2022-12-18T12:11:13;2.70;;;2.50;;
9160;SDS011;4615;51.340;8.288;2022-12-18T12:13:47;2.00;;;1.67;;
9160;SDS011;4615;51.340;8.288;2022-12-18T12:16:16;1.63;;;1.50;;
9160;SDS011;4615;51.340;8.288;2022-12-18T12:18:47;2.60;;;1.80;;
9160;SDS011;4615;51.340;8.288;2022-12-18T12:21:17;2.40;;;2.13;;
9160;SDS011;4615;51.340;8.288;2022-12-18T12:23:47;2.10;;;1.90;;
9160;SDS011;4615;51.340;8.288;2022-12-18T12:26:16;2.47;;;2.08;;
9160;SDS011;4615;51.340;8.288;2022-12-18T12:28:50;2.10;;;1.90;;
9160;SDS011;4615;51.340;8.288;2022-12-18T12:31:20;1.98;;;1.70;;
9160;SDS011;4615;51.340;8.288;2022-12-18T12:33:52;1.80;;;1.70;;
9160;SDS011;4615;51.340;8.288;2022-12-18T12:36:21;2.20;;;1.95;;
9160;SDS011;4615;51.340;8.288;2022-12-18T12:38:53;2.83;;;2.10;;
9160;SDS011;4615;51.340;8.288;2022-12-18T12:41:22;2.53;;;2.08;;
9160;SDS011;4615;51.340;8.288;2022-12-18T12:44:09;2.60;;;2.40;;
9160;SDS011;4615;51.340;8.288;2022-12-18T12:46:39;2.83;;;2.53;;
9160;SDS011;4615;51.340;8.288;2022-12-18T12:49:09;3.08;;;2.78;;
9160;SDS011;4615;51.340;8.288;2022-12-18T12:51:38;2.60;;;2.25;;
9160;SDS011;4615;51.340;8.288;2022-12-18T12:54:13;2.83;;;2.30;;
9160;SDS011;4615;51.340;8.288;2022-12-18T12:56:42;2.30;;;2.10;;
9160;SDS011;4615;51.340;8.288;2022-12-18T12:59:13;2.85;;;2.00;;
9160;SDS011;4615;51.340;8.288;2022-12-18T13:01:40;2.92;;;2.55;;
9160;SDS011;4615;51.340;8.288;2022-12-18T13:04:16;2.50;;;2.30;;
9160;SDS011;4615;51.340;8.288;2022-12-18T13:06:49;4.30;;;2.30;;
9160;SDS011;4615;51.340;8.288;2022-12-18T13:09:17;2.40;;;2.20;;
9160;SDS011;4615;51.340;8.288;2022-12-18T13:11:44;2.63;;;2.10;;
9160;SDS011;4615;51.340;8.288;2022-12-18T13:14:31;2.42;;;2.22;;
9160;SDS011;4615;51.340;8.288;2022-12-18T13:17:22;3.92;;;2.50;;
9160;SDS011;4615;51.340;8.288;2022-12-18T13:20:03;3.92;;;2.40;;
9160;SDS011;4615;51.340;8.288;2022-12-18T13:22:31;3.53;;;2.40;;
9160;SDS011;4615;51.340;8.288;2022-12-18T13:24:59;2.90;;;2.47;;
9160;SDS011;4615;51.340;8.288;2022-12-18T13:32:50;5.03;;;3.10;;
9160;SDS011;4615;51.340;8.288;2022-12-18T13:35:37;3.55;;;3.03;;
9160;SDS011;4615;51.340;8.288;2022-12-18T13:38:16;4.85;;;3.40;;
9160;SDS011;4615;51.340;8.288;2022-12-18T13:40:55;5.65;;;4.07;;
9160;SDS011;4615;51.340;8.288;2022-12-18T13:46:20;6.57;;;4.85;;
9160;SDS011;4615;51.340;8.288;2022-12-18T13:48:52;6.85;;;4.85;;
9160;SDS011;4615;51.340;8.288;2022-12-18T13:51:20;7.63;;;4.40;;
9160;SDS011;4615;51.340;8.288;2022-12-18T13:53:48;7.18;;;5.07;;
9160;SDS011;4615;51.340;8.288;2022-12-18T13:56:16;7.65;;;4.88;;
9160;SDS011;4615;51.340;8.288;2022-12-18T13:58:47;8.35;;;5.82;;
9160;SDS011;4615;51.340;8.288;2022-12-18T14:01:29;7.63;;;4.95;;
9160;SDS011;4615;51.340;8.288;2022-12-18T14:04:09;8.05;;;4.50;;
9160;SDS011;4615;51.340;8.288;2022-12-18T14:06:36;6.88;;;5.00;;
9160;SDS011;4615;51.340;8.288;2022-12-18T14:09:02;7.10;;;5.00;;
9160;SDS011;4615;51.340;8.288;2022-12-18T14:11:29;12.00;;;7.05;;
9160;SDS011;4615;51.340;8.288;2022-12-18T14:13:56;10.35;;;6.68;;
9160;SDS011;4615;51.340;8.288;2022-12-18T14:16:22;9.32;;;6.65;;
9160;SDS011;4615;51.340;8.288;2022-12-18T14:18:50;9.38;;;6.65;;
9160;SDS011;4615;51.340;8.288;2022-12-18T14:21:21;9.63;;;6.00;;
9160;SDS011;4615;51.340;8.288;2022-12-18T14:23:48;9.48;;;6.40;;
9160;SDS011;4615;51.340;8.288;2022-12-18T14:26:22;9.10;;;6.30;;
9160;SDS011;4615;51.340;8.288;2022-12-18T14:28:49;9.77;;;6.07;;
9160;SDS011;4615;51.340;8.288;2022-12-18T14:31:19;9.40;;;5.55;;
9160;SDS011;4615;51.340;8.288;2022-12-18T14:33:46;7.30;;;5.30;;
9160;SDS011;4615;51.340;8.288;2022-12-18T14:36:15;6.47;;;5.15;;
9160;SDS011;4615;51.340;8.288;2022-12-18T14:38:43;6.85;;;5.97;;
9160;SDS011;4615;51.340;8.288;2022-12-18T14:41:14;7.47;;;6.68;;
9160;SDS011;4615;51.340;8.288;2022-12-18T14:43:41;6.93;;;6.22;;
9160;SDS011;4615;51.340;8.288;2022-12-18T14:48:49;7.40;;;5.93;;
9160;SDS011;4615;51.340;8.288;2022-12-18T14:51:16;8.70;;;7.57;;
9160;SDS011;4615;51.340;8.288;2022-12-18T14:53:45;7.28;;;6.30;;
9160;SDS011;4615;51.340;8.288;2022-12-18T14:56:14;6.68;;;5.97;;
9160;SDS011;4615;51.340;8.288;2022-12-18T14:58:44;6.95;;;6.25;;
9160;SDS011;4615;51.340;8.288;2022-12-18T15:01:17;6.85;;;6.15;;
9160;SDS011;4615;51.340;8.288;2022-12-18T15:03:43;6.55;;;5.85;;
9160;SDS011;4615;51.340;8.288;2022-12-18T15:06:16;6.88;;;5.85;;
9160;SDS011;4615;51.340;8.288;2022-12-18T15:08:44;8.35;;;7.07;;
9160;SDS011;4615;51.340;8.288;2022-12-18T15:11:33;8.23;;;6.78;;
9160;SDS011;4615;51.340;8.288;2022-12-18T15:16:42;8.88;;;7.00;;
9160;SDS011;4615;51.340;8.288;2022-12-18T15:19:08;10.13;;;8.60;;
9160;SDS011;4615;51.340;8.288;2022-12-18T15:21:34;8.73;;;7.28;;
9160;SDS011;4615;51.340;8.288;2022-12-18T15:24:02;10.13;;;7.28;;
9160;SDS011;4615;51.340;8.288;2022-12-18T15:26:30;9.73;;;8.70;;
9160;SDS011;4615;51.340;8.288;2022-12-18T15:29:02;8.50;;;7.60;;
9160;SDS011;4615;51.340;8.288;2022-12-18T15:31:29;9.68;;;8.27;;
9160;SDS011;4615;51.340;8.288;2022-12-18T15:34:00;8.20;;;7.35;;
9160;SDS011;4615;51.340;8.288;2022-12-18T15:36:28;8.02;;;7.22;;
9160;SDS011;4615;51.340;8.288;2022-12-18T15:38:55;9.75;;;8.20;;